sensor_id;sensor_type;location;lat;lon;timestamp;pressure;altitude;pressure_sealevel;temperature;humidity
16190;BME280;41754;51.498;7.540;2023-02-11T00:01:24;102121.50;;;7.46;63.26
16190;BME280;41754;51.498;7.540;2023-02-11T00:03:52;102113.06;;;7.65;62.63
16190;BME280;41754;51.498;7.540;2023-02-11T00:06:21;102110.94;;;7.83;61.64
16190;BME280;41754;51.498;7.540;2023-02-11T00:08:50;102105.63;;;7.32;62.51
16190;BME280;41754;51.498;7.540;2023-02-11T00:11:20;102096.41;;;7.09;64.29
16190;BME280;41754;51.498;7.540;2023-02-11T00:13:48;102087.69;;;7.41;63.08
16190;BME280;41754;51.498;7.540;2023-02-11T00:16:17;102083.06;;;7.41;63.15
16190;BME280;41754;51.498;7.540;2023-02-11T00:18:46;102079.38;;;7.07;63.82
16190;BME280;41754;51.498;7.540;2023-02-11T00:21:16;102077.16;;;7.33;63.94
16190;BME280;41754;51.498;7.540;2023-02-11T00:23:44;102075.28;;;7.50;62.63
16190;BME280;41754;51.498;7.540;2023-02-11T00:26:15;102069.91;;;7.55;62.80
16190;BME280;41754;51.498;7.540;2023-02-11T00:28:44;102079.97;;;7.38;63.46
16190;BME280;41754;51.498;7.540;2023-02-11T00:31:13;102079.00;;;7.44;63.16
16190;BME280;41754;51.498;7.540;2023-02-11T00:33:42;102083.81;;;7.37;62.92
16190;BME280;41754;51.498;7.540;2023-02-11T00:36:12;102079.09;;;7.20;63.85
16190;BME280;41754;51.498;7.540;2023-02-11T00:38:41;102078.66;;;7.40;63.05
16190;BME280;41754;51.498;7.540;2023-02-11T00:41:09;102082.53;;;7.56;62.94
16190;BME280;41754;51.498;7.540;2023-02-11T00:43:39;102087.81;;;7.46;62.71
16190;BME280;41754;51.498;7.540;2023-02-11T00:46:07;102094.38;;;7.45;62.88
16190;BME280;41754;51.498;7.540;2023-02-11T00:48:35;102092.31;;;7.23;63.30
16190;BME280;41754;51.498;7.540;2023-02-11T00:51:03;102092.72;;;7.44;62.90
16190;BME280;41754;51.498;7.540;2023-02-11T00:53:31;102088.31;;;7.43;63.07
16190;BME280;41754;51.498;7.540;2023-02-11T00:55:59;102072.41;;;7.16;63.28
16190;BME280;41754;51.498;7.540;2023-02-11T00:58:27;102073.63;;;7.49;63.06
16190;BME280;41754;51.498;7.540;2023-02-11T01:00:56;102068.38;;;7.19;64.08
16190;BME280;41754;51.498;7.540;2023-02-11T01:03:24;102067.34;;;7.08;64.00
16190;BME280;41754;51.498;7.540;2023-02-11T01:05:53;102066.16;;;7.04;64.19
16190;BME280;41754;51.498;7.540;2023-02-11T01:08:21;102067.88;;;7.34;63.70
16190;BME280;41754;51.498;7.540;2023-02-11T01:10:54;102066.22;;;7.33;63.42
16190;BME280;41754;51.498;7.540;2023-02-11T01:13:22;102063.75;;;7.48;62.89
16190;BME280;41754;51.498;7.540;2023-02-11T01:15:52;102070.69;;;7.39;62.94
16190;BME280;41754;51.498;7.540;2023-02-11T01:18:22;102083.19;;;7.06;64.00
16190;BME280;41754;51.498;7.540;2023-02-11T01:20:51;102078.38;;;7.25;64.49
16190;BME280;41754;51.498;7.540;2023-02-11T01:23:19;102080.28;;;7.24;63.67
16190;BME280;41754;51.498;7.540;2023-02-11T01:25:46;102073.19;;;7.40;63.63
16190;BME280;41754;51.498;7.540;2023-02-11T01:28:16;102081.44;;;7.57;62.87
16190;BME280;41754;51.498;7.540;2023-02-11T01:30:44;102079.22;;;7.25;63.60
16190;BME280;41754;51.498;7.540;2023-02-11T01:33:12;102085.69;;;7.08;64.79
16190;BME280;41754;51.498;7.540;2023-02-11T01:35:42;102074.13;;;7.46;64.19
16190;BME280;41754;51.498;7.540;2023-02-11T01:38:14;102080.09;;;7.76;62.60
16190;BME280;41754;51.498;7.540;2023-02-11T01:40:46;102081.19;;;7.75;62.96
16190;BME280;41754;51.498;7.540;2023-02-11T01:43:14;102086.09;;;7.28;63.57
16190;BME280;41754;51.498;7.540;2023-02-11T01:46:02;102078.44;;;7.42;63.55
16190;BME280;41754;51.498;7.540;2023-02-11T01:48:33;102083.97;;;7.18;63.41
16190;BME280;41754;51.498;7.540;2023-02-11T01:51:06;102085.56;;;7.02;64.31
16190;BME280;41754;51.498;7.540;2023-02-11T01:53:36;102071.97;;;7.48;63.62
16190;BME280;41754;51.498;7.540;2023-02-11T01:56:24;102063.25;;;7.51;63.36
16190;BME280;41754;51.498;7.540;2023-02-11T01:59:12;102060.94;;;7.43;63.23
16190;BME280;41754;51.498;7.540;2023-02-11T02:01:43;102068.88;;;7.44;63.99
16190;BME280;41754;51.498;7.540;2023-02-11T02:04:16;102066.22;;;7.49;62.68
16190;BME280;41754;51.498;7.540;2023-02-11T02:06:50;102070.97;;;6.97;64.39
16190;BME280;41754;51.498;7.540;2023-02-11T02:09:21;102069.25;;;7.08;65.25
16190;BME280;41754;51.498;7.540;2023-02-11T02:11:50;102069.66;;;7.28;64.95
16190;BME280;41754;51.498;7.540;2023-02-11T02:14:18;102060.47;;;7.06;65.80
16190;BME280;41754;51.498;7.540;2023-02-11T02:16:47;102042.97;;;7.07;65.37
16190;BME280;41754;51.498;7.540;2023-02-11T02:19:40;102041.66;;;6.81;66.42
16190;BME280;41754;51.498;7.540;2023-02-11T02:22:42;102014.00;;;6.94;66.74
16190;BME280;41754;51.498;7.540;2023-02-11T02:25:25;102019.25;;;6.84;67.29
16190;BME280;41754;51.498;7.540;2023-02-11T02:28:00;102026.38;;;6.56;66.71
16190;BME280;41754;51.498;7.540;2023-02-11T02:31:03;102030.19;;;6.55;67.87
16190;BME280;41754;51.498;7.540;2023-02-11T02:33:41;102027.31;;;7.19;66.34
16190;BME280;41754;51.498;7.540;2023-02-11T02:36:17;102031.06;;;6.73;66.82
16190;BME280;41754;51.498;7.540;2023-02-11T02:38:52;102031.66;;;6.75;67.25
16190;BME280;41754;51.498;7.540;2023-02-11T02:41:24;102036.56;;;7.01;66.87
16190;BME280;41754;51.498;7.540;2023-02-11T02:43:54;102031.25;;;6.94;66.56
16190;BME280;41754;51.498;7.540;2023-02-11T02:46:24;102032.97;;;6.72;67.01
16190;BME280;41754;51.498;7.540;2023-02-11T02:48:54;102021.00;;;6.90;67.31
16190;BME280;41754;51.498;7.540;2023-02-11T02:51:33;102016.38;;;7.19;66.10
16190;BME280;41754;51.498;7.540;2023-02-11T02:54:28;102016.50;;;7.12;65.85
16190;BME280;41754;51.498;7.540;2023-02-11T02:57:00;102032.84;;;7.07;66.18
16190;BME280;41754;51.498;7.540;2023-02-11T02:59:40;102027.56;;;6.89;66.27
16190;BME280;41754;51.498;7.540;2023-02-11T03:02:15;102026.78;;;7.05;66.94
16190;BME280;41754;51.498;7.540;2023-02-11T03:04:51;102020.81;;;7.08;66.07
16190;BME280;41754;51.498;7.540;2023-02-11T03:07:26;102006.16;;;6.86;66.10
16190;BME280;41754;51.498;7.540;2023-02-11T03:10:07;102013.16;;;6.93;66.54
16190;BME280;41754;51.498;7.540;2023-02-11T03:12:36;102012.03;;;7.06;65.39
16190;BME280;41754;51.498;7.540;2023-02-11T03:15:05;102028.28;;;7.13;65.78
16190;BME280;41754;51.498;7.540;2023-02-11T03:17:34;102035.22;;;7.04;66.01
16190;BME280;41754;51.498;7.540;2023-02-11T03:20:10;102027.06;;;7.82;64.03
16190;BME280;41754;51.498;7.540;2023-02-11T03:22:43;102026.91;;;7.55;63.80
16190;BME280;41754;51.498;7.540;2023-02-11T03:25:13;102019.75;;;7.71;63.92
16190;BME280;41754;51.498;7.540;2023-02-11T03:27:46;102027.72;;;7.56;64.41
16190;BME280;41754;51.498;7.540;2023-02-11T03:30:21;102028.38;;;7.97;63.04
16190;BME280;41754;51.498;7.540;2023-02-11T03:32:56;102030.53;;;7.95;63.03
16190;BME280;41754;51.498;7.540;2023-02-11T03:35:32;102031.06;;;7.58;62.66
16190;BME280;41754;51.498;7.540;2023-02-11T03:38:05;102038.59;;;7.84;62.51
16190;BME280;41754;51.498;7.540;2023-02-11T03:40:36;102030.03;;;7.98;62.40
16190;BME280;41754;51.498;7.540;2023-02-11T03:43:08;102030.00;;;8.14;62.00
16190;BME280;41754;51.498;7.540;2023-02-11T03:45:38;102019.25;;;7.74;62.44
16190;BME280;41754;51.498;7.540;2023-02-11T03:48:11;102021.41;;;7.39;63.64
16190;BME280;41754;51.498;7.540;2023-02-11T03:50:43;102019.94;;;7.81;63.38
16190;BME280;41754;51.498;7.540;2023-02-11T03:53:14;102026.47;;;7.47;63.94
16190;BME280;41754;51.498;7.540;2023-02-11T03:55:43;102016.84;;;7.61;64.32
16190;BME280;41754;51.498;7.540;2023-02-11T03:58:12;102011.59;;;7.76;63.72
16190;BME280;41754;51.498;7.540;2023-02-11T04:00:41;102014.38;;;7.43;64.07
16190;BME280;41754;51.498;7.540;2023-02-11T04:03:11;102016.78;;;7.56;63.66
16190;BME280;41754;51.498;7.540;2023-02-11T04:05:39;102022.47;;;7.38;63.72
16190;BME280;41754;51.498;7.540;2023-02-11T04:08:08;102011.66;;;7.02;66.16
16190;BME280;41754;51.498;7.540;2023-02-11T04:10:36;102012.44;;;7.43;66.01
16190;BME280;41754;51.498;7.540;2023-02-11T04:13:04;102017.09;;;7.14;65.89
16190;BME280;41754;51.498;7.540;2023-02-11T04:15:32;102005.41;;;7.81;65.20
16190;BME280;41754;51.498;7.540;2023-02-11T04:18:00;101996.69;;;7.67;65.18
16190;BME280;41754;51.498;7.540;2023-02-11T04:20:29;102002.16;;;7.34;66.53
16190;BME280;41754;51.498;7.540;2023-02-11T04:22:57;101995.25;;;7.81;65.42
16190;BME280;41754;51.498;7.540;2023-02-11T04:25:26;102003.66;;;7.58;66.87
16190;BME280;41754;51.498;7.540;2023-02-11T04:27:54;102007.31;;;6.90;69.38
16190;BME280;41754;51.498;7.540;2023-02-11T04:30:22;102007.94;;;7.37;69.15
16190;BME280;41754;51.498;7.540;2023-02-11T04:32:50;102025.22;;;7.38;68.30
16190;BME280;41754;51.498;7.540;2023-02-11T04:35:19;102031.38;;;7.45;69.15
16190;BME280;41754;51.498;7.540;2023-02-11T04:37:47;102035.72;;;7.29;69.29
16190;BME280;41754;51.498;7.540;2023-02-11T04:40:15;102050.81;;;7.03;70.02
16190;BME280;41754;51.498;7.540;2023-02-11T04:42:44;102048.13;;;7.32;70.61
16190;BME280;41754;51.498;7.540;2023-02-11T04:45:12;102041.53;;;7.04;71.38
16190;BME280;41754;51.498;7.540;2023-02-11T04:47:40;102047.94;;;6.81;71.84
16190;BME280;41754;51.498;7.540;2023-02-11T04:50:08;102048.34;;;6.61;72.98
16190;BME280;41754;51.498;7.540;2023-02-11T04:52:36;102041.50;;;6.24;75.75
16190;BME280;41754;51.498;7.540;2023-02-11T04:55:04;102034.16;;;6.76;74.47
16190;BME280;41754;51.498;7.540;2023-02-11T04:57:33;102034.56;;;6.56;75.70
16190;BME280;41754;51.498;7.540;2023-02-11T05:00:02;102039.28;;;6.73;76.48
16190;BME280;41754;51.498;7.540;2023-02-11T05:02:30;102038.84;;;6.52;76.31
16190;BME280;41754;51.498;7.540;2023-02-11T05:04:58;102025.22;;;7.09;74.36
16190;BME280;41754;51.498;7.540;2023-02-11T05:07:25;102033.72;;;6.96;74.27
16190;BME280;41754;51.498;7.540;2023-02-11T05:09:53;102025.66;;;7.18;73.87
16190;BME280;41754;51.498;7.540;2023-02-11T05:12:21;102027.75;;;6.99;72.94
16190;BME280;41754;51.498;7.540;2023-02-11T05:14:49;102028.72;;;7.05;73.42
16190;BME280;41754;51.498;7.540;2023-02-11T05:17:18;102022.22;;;7.22;72.67
16190;BME280;41754;51.498;7.540;2023-02-11T05:19:46;102028.97;;;6.91;74.14
16190;BME280;41754;51.498;7.540;2023-02-11T05:22:13;102028.13;;;6.91;74.29
16190;BME280;41754;51.498;7.540;2023-02-11T05:24:41;102033.16;;;6.94;74.31
16190;BME280;41754;51.498;7.540;2023-02-11T05:27:09;102024.06;;;7.05;74.32
16190;BME280;41754;51.498;7.540;2023-02-11T05:29:37;102027.31;;;6.90;74.65
16190;BME280;41754;51.498;7.540;2023-02-11T05:32:05;102027.69;;;6.94;74.29
16190;BME280;41754;51.498;7.540;2023-02-11T05:34:35;102034.09;;;7.16;74.05
16190;BME280;41754;51.498;7.540;2023-02-11T05:37:03;102031.81;;;6.96;74.45
16190;BME280;41754;51.498;7.540;2023-02-11T05:39:31;102038.13;;;7.25;73.67
16190;BME280;41754;51.498;7.540;2023-02-11T05:41:59;102036.63;;;6.78;73.18
16190;BME280;41754;51.498;7.540;2023-02-11T05:44:27;102033.19;;;7.11;73.20
16190;BME280;41754;51.498;7.540;2023-02-11T05:46:55;102030.69;;;7.09;73.73
16190;BME280;41754;51.498;7.540;2023-02-11T05:49:22;102028.63;;;7.16;72.93
16190;BME280;41754;51.498;7.540;2023-02-11T05:51:52;102029.38;;;6.83;74.45
16190;BME280;41754;51.498;7.540;2023-02-11T05:54:19;102020.88;;;7.25;73.28
16190;BME280;41754;51.498;7.540;2023-02-11T05:56:47;102026.66;;;6.83;73.81
16190;BME280;41754;51.498;7.540;2023-02-11T05:59:15;102031.59;;;7.26;73.23
16190;BME280;41754;51.498;7.540;2023-02-11T06:01:43;102033.72;;;6.96;73.25
16190;BME280;41754;51.498;7.540;2023-02-11T06:04:11;102033.28;;;7.16;73.69
16190;BME280;41754;51.498;7.540;2023-02-11T06:06:39;102030.00;;;7.02;73.06
16190;BME280;41754;51.498;7.540;2023-02-11T06:09:09;102039.50;;;6.83;74.46
16190;BME280;41754;51.498;7.540;2023-02-11T06:11:37;102029.22;;;7.18;73.30
16190;BME280;41754;51.498;7.540;2023-02-11T06:14:05;102031.34;;;7.28;72.72
16190;BME280;41754;51.498;7.540;2023-02-11T06:16:33;102028.53;;;7.40;72.06
16190;BME280;41754;51.498;7.540;2023-02-11T06:19:00;102038.97;;;7.26;71.87
16190;BME280;41754;51.498;7.540;2023-02-11T06:21:28;102035.09;;;7.10;71.81
16190;BME280;41754;51.498;7.540;2023-02-11T06:24:10;102026.38;;;7.13;73.53
16190;BME280;41754;51.498;7.540;2023-02-11T06:26:38;102027.69;;;7.22;72.96
16190;BME280;41754;51.498;7.540;2023-02-11T06:29:06;102016.50;;;7.41;71.99
16190;BME280;41754;51.498;7.540;2023-02-11T06:31:35;102021.22;;;7.28;71.80
16190;BME280;41754;51.498;7.540;2023-02-11T06:34:04;102015.25;;;7.32;72.27
16190;BME280;41754;51.498;7.540;2023-02-11T06:36:32;102017.19;;;7.48;71.68
16190;BME280;41754;51.498;7.540;2023-02-11T06:39:00;102022.47;;;7.38;70.97
16190;BME280;41754;51.498;7.540;2023-02-11T06:41:29;102013.97;;;7.68;70.75
16190;BME280;41754;51.498;7.540;2023-02-11T06:43:57;102026.03;;;6.41;72.39
16190;BME280;41754;51.498;7.540;2023-02-11T06:46:25;102020.81;;;7.08;73.34
16190;BME280;41754;51.498;7.540;2023-02-11T06:48:53;102024.69;;;6.95;73.81
16190;BME280;41754;51.498;7.540;2023-02-11T06:51:21;102024.25;;;7.44;72.49
16190;BME280;41754;51.498;7.540;2023-02-11T06:53:49;102034.84;;;7.40;71.04
16190;BME280;41754;51.498;7.540;2023-02-11T06:56:19;102036.06;;;7.04;72.33
16190;BME280;41754;51.498;7.540;2023-02-11T06:58:51;102027.56;;;7.63;71.45
16190;BME280;41754;51.498;7.540;2023-02-11T07:01:21;102044.34;;;6.92;73.47
16190;BME280;41754;51.498;7.540;2023-02-11T07:03:50;102030.00;;;7.02;73.49
16190;BME280;41754;51.498;7.540;2023-02-11T07:06:20;102037.00;;;7.10;73.51
16190;BME280;41754;51.498;7.540;2023-02-11T07:08:48;102040.19;;;7.18;73.03
16190;BME280;41754;51.498;7.540;2023-02-11T07:11:18;102041.44;;;6.70;74.97
16190;BME280;41754;51.498;7.540;2023-02-11T07:13:47;102036.25;;;7.14;74.07
16190;BME280;41754;51.498;7.540;2023-02-11T07:16:16;102038.91;;;6.81;75.17
16190;BME280;41754;51.498;7.540;2023-02-11T07:18:46;102043.13;;;7.17;74.59
16190;BME280;41754;51.498;7.540;2023-02-11T07:21:17;102036.66;;;7.35;73.51
16190;BME280;41754;51.498;7.540;2023-02-11T07:23:46;102037.84;;;7.72;71.08
16190;BME280;41754;51.498;7.540;2023-02-11T07:26:15;102032.84;;;7.52;71.31
16190;BME280;41754;51.498;7.540;2023-02-11T07:28:44;102044.38;;;7.38;72.31
16190;BME280;41754;51.498;7.540;2023-02-11T07:31:15;102049.53;;;7.51;72.49
16190;BME280;41754;51.498;7.540;2023-02-11T07:33:44;102049.78;;;7.66;70.94
16190;BME280;41754;51.498;7.540;2023-02-11T07:36:13;102055.59;;;7.53;71.47
16190;BME280;41754;51.498;7.540;2023-02-11T07:38:41;102053.28;;;7.45;72.53
16190;BME280;41754;51.498;7.540;2023-02-11T07:41:12;102051.97;;;7.64;72.28
16190;BME280;41754;51.498;7.540;2023-02-11T07:43:40;102048.88;;;7.77;71.40
16190;BME280;41754;51.498;7.540;2023-02-11T07:46:10;102051.97;;;7.64;71.78
16190;BME280;41754;51.498;7.540;2023-02-11T07:48:39;102058.91;;;7.38;71.89
16190;BME280;41754;51.498;7.540;2023-02-11T07:51:09;102062.59;;;7.44;72.24
16190;BME280;41754;51.498;7.540;2023-02-11T07:53:38;102060.59;;;7.89;70.91
16190;BME280;41754;51.498;7.540;2023-02-11T07:56:07;102054.97;;;7.79;70.97
16190;BME280;41754;51.498;7.540;2023-02-11T07:58:35;102068.41;;;7.64;71.83
16190;BME280;41754;51.498;7.540;2023-02-11T08:01:05;102061.69;;;7.55;72.46
16190;BME280;41754;51.498;7.540;2023-02-11T08:03:34;102060.28;;;7.69;71.55
16190;BME280;41754;51.498;7.540;2023-02-11T08:06:04;102059.94;;;7.82;69.52
16190;BME280;41754;51.498;7.540;2023-02-11T08:08:32;102063.16;;;8.13;70.42
16190;BME280;41754;51.498;7.540;2023-02-11T08:11:04;102064.41;;;8.22;69.91
16190;BME280;41754;51.498;7.540;2023-02-11T08:13:33;102066.84;;;8.40;69.00
16190;BME280;41754;51.498;7.540;2023-02-11T08:16:01;102076.03;;;7.62;71.25
16190;BME280;41754;51.498;7.540;2023-02-11T08:18:29;102076.16;;;8.39;69.70
16190;BME280;41754;51.498;7.540;2023-02-11T08:21:04;102077.44;;;7.65;70.54
16190;BME280;41754;51.498;7.540;2023-02-11T08:23:32;102078.22;;;7.94;71.13
16190;BME280;41754;51.498;7.540;2023-02-11T08:26:01;102088.56;;;7.58;72.26
16190;BME280;41754;51.498;7.540;2023-02-11T08:28:29;102081.19;;;8.09;71.69
16190;BME280;41754;51.498;7.540;2023-02-11T08:30:57;102082.69;;;8.00;70.82
16190;BME280;41754;51.498;7.540;2023-02-11T08:33:24;102090.53;;;8.46;69.92
16190;BME280;41754;51.498;7.540;2023-02-11T08:35:52;102092.34;;;8.58;68.30
16190;BME280;41754;51.498;7.540;2023-02-11T08:38:21;102100.47;;;7.97;70.30
16190;BME280;41754;51.498;7.540;2023-02-11T08:40:49;102108.09;;;8.12;69.37
16190;BME280;41754;51.498;7.540;2023-02-11T08:43:17;102110.00;;;8.11;70.45
16190;BME280;41754;51.498;7.540;2023-02-11T08:45:45;102111.13;;;7.94;71.34
16190;BME280;41754;51.498;7.540;2023-02-11T08:48:13;102119.47;;;7.87;71.63
16190;BME280;41754;51.498;7.540;2023-02-11T08:50:41;102113.41;;;7.68;71.77
16190;BME280;41754;51.498;7.540;2023-02-11T08:53:08;102110.03;;;7.95;72.63
16190;BME280;41754;51.498;7.540;2023-02-11T08:55:37;102110.75;;;7.73;72.78
16190;BME280;41754;51.498;7.540;2023-02-11T08:58:05;102104.28;;;8.30;71.22
16190;BME280;41754;51.498;7.540;2023-02-11T09:00:33;102117.56;;;8.21;71.43
16190;BME280;41754;51.498;7.540;2023-02-11T09:03:01;102125.13;;;8.14;71.61
16190;BME280;41754;51.498;7.540;2023-02-11T09:05:29;102129.19;;;8.28;70.47
16190;BME280;41754;51.498;7.540;2023-02-11T09:07:57;102114.75;;;7.99;70.22
16190;BME280;41754;51.498;7.540;2023-02-11T09:10:25;102126.88;;;8.20;69.62
16190;BME280;41754;51.498;7.540;2023-02-11T09:12:54;102135.91;;;8.37;70.21
16190;BME280;41754;51.498;7.540;2023-02-11T09:15:22;102137.59;;;8.22;70.43
16190;BME280;41754;51.498;7.540;2023-02-11T09:17:50;102128.72;;;7.98;70.73
16190;BME280;41754;51.498;7.540;2023-02-11T09:20:17;102143.34;;;8.20;70.57
16190;BME280;41754;51.498;7.540;2023-02-11T09:22:45;102135.19;;;8.25;70.88
16190;BME280;41754;51.498;7.540;2023-02-11T09:25:13;102130.16;;;8.56;69.45
16190;BME280;41754;51.498;7.540;2023-02-11T09:27:41;102130.09;;;8.89;68.36
16190;BME280;41754;51.498;7.540;2023-02-11T09:30:11;102131.34;;;9.47;66.52
16190;BME280;41754;51.498;7.540;2023-02-11T09:32:39;102126.28;;;8.73;66.94
16190;BME280;41754;51.498;7.540;2023-02-11T09:35:07;102137.34;;;8.79;67.81
16190;BME280;41754;51.498;7.540;2023-02-11T09:37:35;102140.97;;;8.79;67.57
16190;BME280;41754;51.498;7.540;2023-02-11T09:40:04;102151.78;;;8.52;68.36
16190;BME280;41754;51.498;7.540;2023-02-11T09:42:47;102146.06;;;8.92;67.43
16190;BME280;41754;51.498;7.540;2023-02-11T09:45:21;102149.00;;;9.08;67.45
16190;BME280;41754;51.498;7.540;2023-02-11T09:47:53;102157.69;;;8.99;67.70
16190;BME280;41754;51.498;7.540;2023-02-11T09:50:27;102153.66;;;8.85;67.86
16190;BME280;41754;51.498;7.540;2023-02-11T09:52:58;102156.09;;;8.82;67.45
16190;BME280;41754;51.498;7.540;2023-02-11T09:55:28;102157.75;;;8.66;67.52
16190;BME280;41754;51.498;7.540;2023-02-11T09:57:57;102155.44;;;8.58;68.60
16190;BME280;41754;51.498;7.540;2023-02-11T10:00:30;102159.47;;;8.72;69.40
16190;BME280;41754;51.498;7.540;2023-02-11T10:03:37;102154.06;;;8.77;69.43
16190;BME280;41754;51.498;7.540;2023-02-11T10:09:08;102153.59;;;8.80;67.95
16190;BME280;41754;51.498;7.540;2023-02-11T10:11:49;102164.38;;;8.87;68.42
16190;BME280;41754;51.498;7.540;2023-02-11T10:14:29;102158.19;;;8.96;67.67
16190;BME280;41754;51.498;7.540;2023-02-11T10:17:10;102162.81;;;8.74;68.32
16190;BME280;41754;51.498;7.540;2023-02-11T10:19:54;102166.69;;;8.78;68.52
16190;BME280;41754;51.498;7.540;2023-02-11T10:22:27;102173.91;;;9.23;67.39
16190;BME280;41754;51.498;7.540;2023-02-11T10:24:58;102174.84;;;8.90;67.79
16190;BME280;41754;51.498;7.540;2023-02-11T10:27:30;102171.69;;;9.20;67.12
16190;BME280;41754;51.498;7.540;2023-02-11T10:30:02;102175.03;;;9.27;66.52
16190;BME280;41754;51.498;7.540;2023-02-11T10:32:37;102180.69;;;8.93;67.81
16190;BME280;41754;51.498;7.540;2023-02-11T10:35:13;102178.94;;;8.87;68.01
16190;BME280;41754;51.498;7.540;2023-02-11T10:37:43;102182.06;;;8.57;69.30
16190;BME280;41754;51.498;7.540;2023-02-11T10:40:13;102191.34;;;8.39;69.87
16190;BME280;41754;51.498;7.540;2023-02-11T10:42:45;102192.34;;;8.67;69.22
16190;BME280;41754;51.498;7.540;2023-02-11T10:45:18;102188.00;;;8.71;69.59
16190;BME280;41754;51.498;7.540;2023-02-11T10:47:53;102188.25;;;8.86;68.52
16190;BME280;41754;51.498;7.540;2023-02-11T10:50:24;102182.84;;;8.91;67.91
16190;BME280;41754;51.498;7.540;2023-02-11T10:53:10;102187.69;;;9.77;65.82
16190;BME280;41754;51.498;7.540;2023-02-11T10:55:50;102191.16;;;8.96;66.74
16190;BME280;41754;51.498;7.540;2023-02-11T10:58:24;102190.25;;;9.13;67.62
16190;BME280;41754;51.498;7.540;2023-02-11T11:00:54;102195.66;;;8.69;68.81
16190;BME280;41754;51.498;7.540;2023-02-11T11:03:25;102197.28;;;9.03;66.89
16190;BME280;41754;51.498;7.540;2023-02-11T11:05:55;102195.31;;;9.43;67.28
16190;BME280;41754;51.498;7.540;2023-02-11T11:08:37;102190.84;;;9.37;65.15
16190;BME280;41754;51.498;7.540;2023-02-11T11:11:07;102190.13;;;9.46;65.93
16190;BME280;41754;51.498;7.540;2023-02-11T11:13:36;102183.28;;;9.27;65.78
16190;BME280;41754;51.498;7.540;2023-02-11T11:16:08;102194.97;;;9.39;65.73
16190;BME280;41754;51.498;7.540;2023-02-11T11:18:43;102201.00;;;8.92;67.14
16190;BME280;41754;51.498;7.540;2023-02-11T11:21:14;102200.09;;;9.09;67.45
16190;BME280;41754;51.498;7.540;2023-02-11T11:23:48;102197.16;;;8.93;67.81
16190;BME280;41754;51.498;7.540;2023-02-11T11:26:17;102199.56;;;8.73;67.43
16190;BME280;41754;51.498;7.540;2023-02-11T11:28:55;102201.47;;;8.89;67.14
16190;BME280;41754;51.498;7.540;2023-02-11T11:31:26;102204.44;;;9.04;67.36
16190;BME280;41754;51.498;7.540;2023-02-11T11:33:58;102203.22;;;8.95;67.22
16190;BME280;41754;51.498;7.540;2023-02-11T11:36:35;102212.28;;;8.62;69.19
16190;BME280;41754;51.498;7.540;2023-02-11T11:39:17;102203.66;;;8.70;70.28
16190;BME280;41754;51.498;7.540;2023-02-11T11:41:52;102206.16;;;8.38;70.65
16190;BME280;41754;51.498;7.540;2023-02-11T11:44:24;102198.16;;;8.70;69.96
16190;BME280;41754;51.498;7.540;2023-02-11T11:47:13;102200.63;;;9.05;69.27
16190;BME280;41754;51.498;7.540;2023-02-11T11:49:48;102194.31;;;8.88;69.64
16190;BME280;41754;51.498;7.540;2023-02-11T11:52:25;102199.06;;;9.15;67.94
16190;BME280;41754;51.498;7.540;2023-02-11T11:55:03;102204.22;;;9.28;68.53
16190;BME280;41754;51.498;7.540;2023-02-11T11:57:36;102200.28;;;9.02;68.55
16190;BME280;41754;51.498;7.540;2023-02-11T12:00:05;102199.09;;;8.42;69.71
16190;BME280;41754;51.498;7.540;2023-02-11T12:03:13;102193.25;;;9.11;68.56
16190;BME280;41754;51.498;7.540;2023-02-11T12:05:51;102181.44;;;9.11;68.41
16190;BME280;41754;51.498;7.540;2023-02-11T12:08:35;102169.69;;;9.64;66.26
16190;BME280;41754;51.498;7.540;2023-02-11T12:11:11;102165.78;;;9.82;64.60
16190;BME280;41754;51.498;7.540;2023-02-11T12:13:51;102169.91;;;8.53;67.66
16190;BME280;41754;51.498;7.540;2023-02-11T12:16:32;102168.06;;;9.90;66.84
16190;BME280;41754;51.498;7.540;2023-02-11T12:22:09;102169.28;;;9.50;66.30
16190;BME280;41754;51.498;7.540;2023-02-11T12:24:49;102172.28;;;9.49;65.73
16190;BME280;41754;51.498;7.540;2023-02-11T12:27:26;102169.38;;;9.33;67.08
16190;BME280;41754;51.498;7.540;2023-02-11T12:30:03;102178.19;;;9.35;67.55
16190;BME280;41754;51.498;7.540;2023-02-11T12:32:38;102174.59;;;9.57;65.58
16190;BME280;41754;51.498;7.540;2023-02-11T12:35:24;102162.75;;;9.29;66.64
16190;BME280;41754;51.498;7.540;2023-02-11T12:38:10;102167.00;;;9.42;66.69
16190;BME280;41754;51.498;7.540;2023-02-11T12:40:44;102181.63;;;9.75;66.28
16190;BME280;41754;51.498;7.540;2023-02-11T12:43:20;102184.09;;;9.49;66.57
16190;BME280;41754;51.498;7.540;2023-02-11T12:46:07;102182.25;;;10.09;65.20
16190;BME280;41754;51.498;7.540;2023-02-11T12:48:55;102180.72;;;9.91;64.18
16190;BME280;41754;51.498;7.540;2023-02-11T12:51:38;102172.28;;;9.49;65.16
16190;BME280;41754;51.498;7.540;2023-02-11T12:54:21;102169.78;;;10.28;64.35
16190;BME280;41754;51.498;7.540;2023-02-11T12:56:55;102166.06;;;9.85;64.30
16190;BME280;41754;51.498;7.540;2023-02-11T12:59:33;102171.88;;;9.89;65.68
16190;BME280;41754;51.498;7.540;2023-02-11T13:02:13;102177.38;;;9.89;64.80
16190;BME280;41754;51.498;7.540;2023-02-11T13:04:47;102187.44;;;9.51;65.87
16190;BME280;41754;51.498;7.540;2023-02-11T13:07:22;102181.63;;;10.02;65.39
16190;BME280;41754;51.498;7.540;2023-02-11T13:09:58;102175.81;;;9.98;64.31
16190;BME280;41754;51.498;7.540;2023-02-11T13:12:31;102184.22;;;9.59;65.52
16190;BME280;41754;51.498;7.540;2023-02-11T13:15:17;102173.72;;;10.10;64.41
16190;BME280;41754;51.498;7.540;2023-02-11T13:17:51;102167.84;;;9.70;65.45
16190;BME280;41754;51.498;7.540;2023-02-11T13:20:30;102156.69;;;10.13;64.38
16190;BME280;41754;51.498;7.540;2023-02-11T13:23:07;102151.31;;;10.23;64.84
16190;BME280;41754;51.498;7.540;2023-02-11T13:25:43;102148.53;;;10.18;63.70
16190;BME280;41754;51.498;7.540;2023-02-11T13:28:24;102145.09;;;10.06;64.23
16190;BME280;41754;51.498;7.540;2023-02-11T13:30:54;102145.00;;;10.65;62.52